Time,TemperatureF,DewpointF,PressureIn,WindDirection,WindDirectionDegrees,WindSpeedMPH,WindSpeedGustMPH,Humidity,HourlyPrecipIn,Conditions,Clouds,dailyrainin,SoftwareType,DateUTC
2013-05-09 00:00:00,19.0,17.0,-100.00,West,276,7.0,17.0,90,-99.99,,,-99.99,,2013-05-09 06:00:00,
2013-05-09 00:42:00,19.0,17.0,-100.00,West,276,7.0,17.0,90,-99.99,,,-99.99,,2013-05-09 06:42:00,
2013-05-09 00:52:00,19.0,17.0,-100.00,West,276,7.0,17.0,90,-99.99,,,-99.99,,2013-05-09 06:52:00,
2013-05-09 01:00:00,19.0,16.0,-100.00,WSW,242,3.0,8.0,89,-99.99,,,-99.99,,2013-05-09 07:00:00,
2013-05-09 01:43:00,19.0,16.0,-100.00,WSW,242,3.0,8.0,89,-99.99,,,-99.99,,2013-05-09 07:43:00,
2013-05-09 01:52:00,19.0,16.0,-100.00,WSW,242,3.0,8.0,89,-99.99,,,-99.99,,2013-05-09 07:52:00,
2013-05-09 02:00:00,19.0,16.0,-100.00,West,274,3.0,8.0,88,-99.99,,,-99.99,,2013-05-09 08:00:00,
2013-05-09 02:42:00,19.0,16.0,-100.00,West,274,3.0,8.0,88,-99.99,,,-99.99,,2013-05-09 08:42:00,
2013-05-09 02:52:00,19.0,16.0,-100.00,West,274,3.0,8.0,88,-99.99,,,-99.99,,2013-05-09 08:52:00,
2013-05-09 03:00:00,19.0,17.0,-100.00,WSW,246,3.0,9.0,91,-99.99,,,-99.99,,2013-05-09 09:00:00,
2013-05-09 03:43:00,19.0,17.0,-100.00,WSW,246,3.0,9.0,91,-99.99,,,-99.99,,2013-05-09 09:43:00,
2013-05-09 03:53:00,19.0,17.0,-100.00,WSW,246,3.0,9.0,91,-99.99,,,-99.99,,2013-05-09 09:53:00,
2013-05-09 04:00:00,19.0,17.0,-100.00,WSW,240,3.0,8.0,94,-99.99,,,-99.99,,2013-05-09 10:00:00,
2013-05-09 04:42:00,19.0,17.0,-100.00,WSW,240,3.0,8.0,94,-99.99,,,-99.99,,2013-05-09 10:42:00,
2013-05-09 04:52:00,19.0,17.0,-100.00,WSW,240,3.0,8.0,94,-99.99,,,-99.99,,2013-05-09 10:52:00,
2013-05-09 05:00:00,18.0,17.0,-100.00,WNW,282,4.0,10.0,95,-99.99,,,-99.99,,2013-05-09 11:00:00,
2013-05-09 05:42:00,18.0,17.0,-100.00,WNW,282,4.0,10.0,95,-99.99,,,-99.99,,2013-05-09 11:42:00,
2013-05-09 05:52:00,18.0,17.0,-100.00,WNW,282,4.0,10.0,95,-99.99,,,-99.99,,2013-05-09 11:52:00,
2013-05-09 06:00:00,18.0,17.0,-100.00,WNW,284,7.0,15.0,95,-99.99,,,-99.99,,2013-05-09 12:00:00,
2013-05-09 06:42:00,18.0,17.0,-100.00,WNW,284,7.0,15.0,95,-99.99,,,-99.99,,2013-05-09 12:42:00,
2013-05-09 06:52:00,18.0,17.0,-100.00,WNW,284,7.0,15.0,95,-99.99,,,-99.99,,2013-05-09 12:52:00,
2013-05-09 07:00:00,19.0,18.0,-100.00,SE,133,3.0,12.0,95,-99.99,,,-99.99,,2013-05-09 13:00:00,
2013-05-09 07:42:00,19.0,18.0,-100.00,SE,133,3.0,12.0,95,-99.99,,,-99.99,,2013-05-09 13:42:00,
2013-05-09 07:52:00,19.0,18.0,-100.00,SE,133,3.0,12.0,95,-99.99,,,-99.99,,2013-05-09 13:52:00,
2013-05-09 08:00:00,21.0,19.0,-100.00,South,190,1.0,4.0,92,-99.99,,,-99.99,,2013-05-09 14:00:00,
2013-05-09 08:42:00,21.0,19.0,-100.00,South,190,1.0,4.0,92,-99.99,,,-99.99,,2013-05-09 14:42:00,
2013-05-09 08:52:00,21.0,19.0,-100.00,South,190,1.0,4.0,92,-99.99,,,-99.99,,2013-05-09 14:52:00,
2013-05-09 09:00:00,23.0,20.0,-100.00,South,179,3.0,6.0,89,-99.99,,,-99.99,,2013-05-09 15:00:00,
2013-05-09 09:43:00,23.0,20.0,-100.00,South,179,3.0,6.0,89,-99.99,,,-99.99,,2013-05-09 15:43:00,
2013-05-09 09:53:00,23.0,20.0,-100.00,South,179,3.0,6.0,89,-99.99,,,-99.99,,2013-05-09 15:53:00,
2013-05-09 10:00:00,25.0,21.0,-100.00,ENE,71,3.0,10.0,85,-99.99,,,-99.99,,2013-05-09 16:00:00,
2013-05-09 10:42:00,25.0,21.0,-100.00,ENE,71,3.0,10.0,85,-99.99,,,-99.99,,2013-05-09 16:42:00,
2013-05-09 10:53:00,25.0,21.0,-100.00,ENE,71,3.0,10.0,85,-99.99,,,-99.99,,2013-05-09 16:53:00,
2013-05-09 11:00:00,24.0,20.0,-100.00,East,86,5.0,11.0,86,-99.99,,,-99.99,,2013-05-09 17:00:00,
2013-05-09 11:42:00,24.0,20.0,-100.00,East,86,5.0,11.0,86,-99.99,,,-99.99,,2013-05-09 17:42:00,
2013-05-09 11:55:00,24.0,20.0,-100.00,East,86,5.0,11.0,86,-99.99,,,-99.99,,2013-05-09 17:55:00,
2013-05-09 12:00:00,26.0,20.0,-100.00,NNW,345,6.0,16.0,78,-99.99,,,-99.99,,2013-05-09 18:00:00,
2013-05-09 12:42:00,26.0,20.0,-100.00,NNW,345,6.0,16.0,78,-99.99,,,-99.99,,2013-05-09 18:42:00,
2013-05-09 12:52:00,26.0,20.0,-100.00,NNW,345,6.0,16.0,78,-99.99,,,-99.99,,2013-05-09 18:52:00,
2013-05-09 13:00:00,24.0,21.0,-100.00,ESE,102,8.0,16.0,88,-99.99,,,-99.99,,2013-05-09 19:00:00,
2013-05-09 13:42:00,24.0,21.0,-100.00,ESE,102,8.0,16.0,88,-99.99,,,-99.99,,2013-05-09 19:42:00,
2013-05-09 13:52:00,24.0,21.0,-100.00,ESE,102,8.0,16.0,88,-99.99,,,-99.99,,2013-05-09 19:52:00,
2013-05-09 14:00:00,25.0,23.0,-100.00,SE,139,7.0,15.0,91,-99.99,,,-99.99,,2013-05-09 20:00:00,
2013-05-09 14:42:00,25.0,23.0,-100.00,SE,139,7.0,15.0,91,-99.99,,,-99.99,,2013-05-09 20:42:00,
2013-05-09 14:52:00,25.0,23.0,-100.00,SE,139,7.0,15.0,91,-99.99,,,-99.99,,2013-05-09 20:52:00,
2013-05-09 15:00:00,25.0,22.0,-100.00,ESE,117,7.0,16.0,87,-99.99,,,-99.99,,2013-05-09 21:00:00,
2013-05-09 15:43:00,25.0,22.0,-100.00,ESE,117,7.0,16.0,87,-99.99,,,-99.99,,2013-05-09 21:43:00,
2013-05-09 15:53:00,25.0,22.0,-100.00,ESE,117,7.0,16.0,87,-99.99,,,-99.99,,2013-05-09 21:53:00,
2013-05-09 16:00:00,24.0,22.0,-100.00,NNE,33,10.0,18.0,93,-99.99,,,-99.99,,2013-05-09 22:00:00,
2013-05-09 16:42:00,24.0,22.0,-100.00,NNE,33,10.0,18.0,93,-99.99,,,-99.99,,2013-05-09 22:42:00,
2013-05-09 16:52:00,24.0,22.0,-100.00,NNE,33,10.0,18.0,93,-99.99,,,-99.99,,2013-05-09 22:52:00,
2013-05-09 17:00:00,26.0,22.0,-100.00,ENE,78,6.0,14.0,82,-99.99,,,-99.99,,2013-05-09 23:00:00,
2013-05-09 17:42:00,26.0,22.0,-100.00,ENE,78,6.0,14.0,82,-99.99,,,-99.99,,2013-05-09 23:42:00,
2013-05-09 17:52:00,26.0,22.0,-100.00,ENE,78,6.0,14.0,82,-99.99,,,-99.99,,2013-05-09 23:52:00,
2013-05-09 18:00:00,26.0,20.0,-100.00,East,97,8.0,17.0,76,-99.99,,,-99.99,,2013-05-10 00:00:00,
2013-05-09 18:42:00,26.0,20.0,-100.00,East,97,8.0,17.0,76,-99.99,,,-99.99,,2013-05-10 00:42:00,
2013-05-09 18:52:00,26.0,20.0,-100.00,East,97,8.0,17.0,76,-99.99,,,-99.99,,2013-05-10 00:52:00,
2013-05-09 19:00:00,26.0,22.0,-100.00,SSE,148,4.0,11.0,82,-99.99,,,-99.99,,2013-05-10 01:00:00,
2013-05-09 19:42:00,26.0,22.0,-100.00,SSE,148,4.0,11.0,82,-99.99,,,-99.99,,2013-05-10 01:42:00,
2013-05-09 19:52:00,26.0,22.0,-100.00,SSE,148,4.0,11.0,82,-99.99,,,-99.99,,2013-05-10 01:52:00,
2013-05-09 20:00:00,25.0,22.0,-100.00,SE,138,5.0,16.0,88,-99.99,,,-99.99,,2013-05-10 02:00:00,
2013-05-09 20:42:00,25.0,22.0,-100.00,SE,138,5.0,16.0,88,-99.99,,,-99.99,,2013-05-10 02:42:00,
2013-05-09 20:52:00,25.0,22.0,-100.00,SE,138,5.0,16.0,88,-99.99,,,-99.99,,2013-05-10 02:52:00,
2013-05-09 21:00:00,23.0,23.0,-100.00,NE,42,4.0,8.0,96,-99.99,,,-99.99,,2013-05-10 03:00:00,
2013-05-09 21:43:00,23.0,23.0,-100.00,NE,42,4.0,8.0,96,-99.99,,,-99.99,,2013-05-10 03:43:00,
2013-05-09 21:53:00,23.0,23.0,-100.00,NE,42,4.0,8.0,96,-99.99,,,-99.99,,2013-05-10 03:53:00,
2013-05-09 22:00:00,23.0,22.0,-100.00,NNE,15,5.0,8.0,94,-99.99,,,-99.99,,2013-05-10 04:00:00,
2013-05-09 22:43:00,23.0,22.0,-100.00,NNE,15,5.0,8.0,94,-99.99,,,-99.99,,2013-05-10 04:43:00,
2013-05-09 22:53:00,23.0,22.0,-100.00,NNE,15,5.0,8.0,94,-99.99,,,-99.99,,2013-05-10 04:53:00,
2013-05-09 23:00:00,23.0,20.0,-100.00,NNE,18,5.0,7.0,87,-99.99,,,-99.99,,2013-05-10 05:00:00,
2013-05-09 23:42:00,23.0,20.0,-100.00,NNE,18,5.0,7.0,87,-99.99,,,-99.99,,2013-05-10 05:42:00,
2013-05-09 23:52:00,23.0,20.0,-100.00,NNE,18,5.0,7.0,87,-99.99,,,-99.99,,2013-05-10 05:52:00,